sensor_id;sensor_type;location;lat;lon;timestamp;pressure;altitude;pressure_sealevel;temperature;humidity
81897;BME280;71360;43.506;1.500;2024-03-02T00:00:20;98052.53;;;8.69;67.91
81897;BME280;71360;43.506;1.500;2024-03-02T00:02:48;98064.22;;;8.66;68.46
81897;BME280;71360;43.506;1.500;2024-03-02T00:05:22;98075.19;;;8.61;68.39
81897;BME280;71360;43.506;1.500;2024-03-02T00:07:55;98073.47;;;8.60;68.87
81897;BME280;71360;43.506;1.500;2024-03-02T00:10:24;98088.84;;;8.55;68.55
81897;BME280;71360;43.506;1.500;2024-03-02T00:12:54;98079.44;;;8.50;68.94
81897;BME280;71360;43.506;1.500;2024-03-02T00:17:57;98071.91;;;8.42;68.71
81897;BME280;71360;43.506;1.500;2024-03-02T00:20:24;98077.41;;;8.39;68.93
81897;BME280;71360;43.506;1.500;2024-03-02T00:23:02;98075.69;;;8.38;69.42
81897;BME280;71360;43.506;1.500;2024-03-02T00:25:42;98074.06;;;8.35;69.17
81897;BME280;71360;43.506;1.500;2024-03-02T00:33:36;98071.56;;;8.32;68.95
81897;BME280;71360;43.506;1.500;2024-03-02T00:36:03;98070.72;;;8.32;69.36
81897;BME280;71360;43.506;1.500;2024-03-02T00:38:30;98075.03;;;8.34;69.48
81897;BME280;71360;43.506;1.500;2024-03-02T00:40:58;98068.75;;;8.35;69.44
81897;BME280;71360;43.506;1.500;2024-03-02T00:45:49;98070.38;;;8.38;69.29
81897;BME280;71360;43.506;1.500;2024-03-02T00:48:16;98070.28;;;8.39;69.05
81897;BME280;71360;43.506;1.500;2024-03-02T00:50:42;98067.63;;;8.39;69.18
81897;BME280;71360;43.506;1.500;2024-03-02T00:53:10;98063.91;;;8.42;69.29
81897;BME280;71360;43.506;1.500;2024-03-02T00:55:37;98059.34;;;8.44;68.92
81897;BME280;71360;43.506;1.500;2024-03-02T00:58:03;98056.63;;;8.45;69.37
81897;BME280;71360;43.506;1.500;2024-03-02T01:00:29;98067.94;;;8.49;69.23
81897;BME280;71360;43.506;1.500;2024-03-02T01:02:54;98062.63;;;8.49;69.51
81897;BME280;71360;43.506;1.500;2024-03-02T01:05:20;98061.59;;;8.52;69.21
81897;BME280;71360;43.506;1.500;2024-03-02T01:07:45;98063.19;;;8.54;69.36
81897;BME280;71360;43.506;1.500;2024-03-02T01:10:11;98062.22;;;8.55;69.13
81897;BME280;71360;43.506;1.500;2024-03-02T01:12:37;98058.47;;;8.59;68.97
81897;BME280;71360;43.506;1.500;2024-03-02T01:15:02;98052.94;;;8.63;68.91
81897;BME280;71360;43.506;1.500;2024-03-02T01:17:31;98047.41;;;8.66;68.60
81897;BME280;71360;43.506;1.500;2024-03-02T01:19:56;98040.19;;;8.68;69.20
81897;BME280;71360;43.506;1.500;2024-03-02T01:22:23;98024.97;;;8.70;69.15
81897;BME280;71360;43.506;1.500;2024-03-02T01:24:50;98029.53;;;8.68;68.96
81897;BME280;71360;43.506;1.500;2024-03-02T01:27:16;98022.50;;;8.67;69.48
81897;BME280;71360;43.506;1.500;2024-03-02T01:29:41;98020.97;;;8.63;69.57
81897;BME280;71360;43.506;1.500;2024-03-02T01:32:07;98014.03;;;8.60;69.96
81897;BME280;71360;43.506;1.500;2024-03-02T01:34:32;98011.63;;;8.55;70.00
81897;BME280;71360;43.506;1.500;2024-03-02T01:36:58;98011.09;;;8.50;69.50
81897;BME280;71360;43.506;1.500;2024-03-02T01:39:23;98013.91;;;8.47;70.05
81897;BME280;71360;43.506;1.500;2024-03-02T01:41:49;98007.03;;;8.43;70.05
81897;BME280;71360;43.506;1.500;2024-03-02T01:44:14;98006.28;;;8.41;69.79
81897;BME280;71360;43.506;1.500;2024-03-02T01:46:40;98005.59;;;8.37;70.08
81897;BME280;71360;43.506;1.500;2024-03-02T01:49:06;97992.59;;;8.33;70.33
81897;BME280;71360;43.506;1.500;2024-03-02T01:51:32;97991.16;;;8.27;70.27
81897;BME280;71360;43.506;1.500;2024-03-02T01:53:57;97978.91;;;8.24;70.77
81897;BME280;71360;43.506;1.500;2024-03-02T01:56:23;97974.72;;;8.20;70.56
81897;BME280;71360;43.506;1.500;2024-03-02T01:58:49;97981.06;;;8.18;70.95
81897;BME280;71360;43.506;1.500;2024-03-02T02:01:15;97973.94;;;8.18;70.26
81897;BME280;71360;43.506;1.500;2024-03-02T02:03:42;97972.22;;;8.17;70.37
81897;BME280;71360;43.506;1.500;2024-03-02T02:06:08;97987.25;;;8.18;70.36
81897;BME280;71360;43.506;1.500;2024-03-02T02:08:36;97981.16;;;8.16;70.18
81897;BME280;71360;43.506;1.500;2024-03-02T02:11:02;97985.81;;;8.13;70.54
81897;BME280;71360;43.506;1.500;2024-03-02T02:13:28;97986.09;;;8.08;70.48
81897;BME280;71360;43.506;1.500;2024-03-02T02:15:53;97980.19;;;8.03;70.67
81897;BME280;71360;43.506;1.500;2024-03-02T02:18:19;97972.47;;;7.98;70.61
81897;BME280;71360;43.506;1.500;2024-03-02T02:20:44;97979.03;;;7.92;70.91
81897;BME280;71360;43.506;1.500;2024-03-02T02:23:10;97975.72;;;7.89;70.80
81897;BME280;71360;43.506;1.500;2024-03-02T02:25:38;97968.00;;;7.84;71.07
81897;BME280;71360;43.506;1.500;2024-03-02T02:28:04;97969.91;;;7.82;70.83
81897;BME280;71360;43.506;1.500;2024-03-02T02:30:31;97960.09;;;7.83;71.44
81897;BME280;71360;43.506;1.500;2024-03-02T02:32:57;97954.69;;;7.84;71.60
81897;BME280;71360;43.506;1.500;2024-03-02T02:35:23;97952.81;;;7.86;71.62
81897;BME280;71360;43.506;1.500;2024-03-02T02:37:55;97947.28;;;7.89;71.52
81897;BME280;71360;43.506;1.500;2024-03-02T02:40:21;97940.00;;;7.93;71.47
81897;BME280;71360;43.506;1.500;2024-03-02T02:42:47;97933.63;;;7.96;71.82
81897;BME280;71360;43.506;1.500;2024-03-02T02:45:13;97927.34;;;7.97;71.71
81897;BME280;71360;43.506;1.500;2024-03-02T02:47:43;97924.59;;;7.98;71.73
81897;BME280;71360;43.506;1.500;2024-03-02T02:50:10;97915.66;;;7.99;71.54
81897;BME280;71360;43.506;1.500;2024-03-02T02:52:38;97906.94;;;7.97;71.78
81897;BME280;71360;43.506;1.500;2024-03-02T02:55:10;97907.97;;;7.94;71.58
81897;BME280;71360;43.506;1.500;2024-03-02T02:57:37;97898.28;;;7.93;71.18
81897;BME280;71360;43.506;1.500;2024-03-02T03:00:07;97892.22;;;7.91;71.79
81897;BME280;71360;43.506;1.500;2024-03-02T03:02:40;97883.44;;;7.89;71.50
81897;BME280;71360;43.506;1.500;2024-03-02T03:05:07;97881.72;;;7.88;71.29
81897;BME280;71360;43.506;1.500;2024-03-02T03:07:33;97881.09;;;7.85;71.32
81897;BME280;71360;43.506;1.500;2024-03-02T03:10:03;97876.81;;;7.82;71.62
81897;BME280;71360;43.506;1.500;2024-03-02T03:12:30;97868.03;;;7.80;72.01
81897;BME280;71360;43.506;1.500;2024-03-02T03:14:56;97862.91;;;7.77;71.55
81897;BME280;71360;43.506;1.500;2024-03-02T03:17:22;97859.47;;;7.75;71.91
81897;BME280;71360;43.506;1.500;2024-03-02T03:19:48;97859.47;;;7.75;71.72
81897;BME280;71360;43.506;1.500;2024-03-02T03:22:14;97851.59;;;7.73;72.24
81897;BME280;71360;43.506;1.500;2024-03-02T03:24:39;97841.06;;;7.72;72.26
81897;BME280;71360;43.506;1.500;2024-03-02T03:27:05;97841.16;;;7.70;72.05
81897;BME280;71360;43.506;1.500;2024-03-02T03:29:31;97830.72;;;7.67;72.23
81897;BME280;71360;43.506;1.500;2024-03-02T03:31:56;97819.22;;;7.67;72.04
81897;BME280;71360;43.506;1.500;2024-03-02T03:34:22;97817.69;;;7.63;72.04
81897;BME280;71360;43.506;1.500;2024-03-02T03:36:47;97822.16;;;7.62;72.26
81897;BME280;71360;43.506;1.500;2024-03-02T03:39:12;97814.44;;;7.57;72.49
81897;BME280;71360;43.506;1.500;2024-03-02T03:41:38;97818.91;;;7.57;72.72
81897;BME280;71360;43.506;1.500;2024-03-02T03:44:05;97813.81;;;7.54;72.74
81897;BME280;71360;43.506;1.500;2024-03-02T03:46:30;97810.38;;;7.52;72.38
81897;BME280;71360;43.506;1.500;2024-03-02T03:48:56;97806.97;;;7.50;72.45
81897;BME280;71360;43.506;1.500;2024-03-02T03:51:21;97801.84;;;7.47;72.92
81897;BME280;71360;43.506;1.500;2024-03-02T03:53:48;97800.97;;;7.46;73.07
81897;BME280;71360;43.506;1.500;2024-03-02T03:56:14;97792.25;;;7.44;72.72
81897;BME280;71360;43.506;1.500;2024-03-02T03:58:39;97794.13;;;7.42;73.16
81897;BME280;71360;43.506;1.500;2024-03-02T04:01:05;97781.78;;;7.41;72.50
81897;BME280;71360;43.506;1.500;2024-03-02T04:03:30;97782.81;;;7.38;72.73
81897;BME280;71360;43.506;1.500;2024-03-02T04:05:56;97777.59;;;7.37;72.89
81897;BME280;71360;43.506;1.500;2024-03-02T04:08:21;97776.75;;;7.36;72.99
81897;BME280;71360;43.506;1.500;2024-03-02T04:10:47;97774.09;;;7.36;73.03
81897;BME280;71360;43.506;1.500;2024-03-02T04:13:12;97781.22;;;7.36;72.48
81897;BME280;71360;43.506;1.500;2024-03-02T04:15:38;97775.13;;;7.34;73.14
81897;BME280;71360;43.506;1.500;2024-03-02T04:18:04;97761.94;;;7.32;72.65
81897;BME280;71360;43.506;1.500;2024-03-02T04:20:29;97764.59;;;7.32;72.72
81897;BME280;71360;43.506;1.500;2024-03-02T04:22:55;97761.94;;;7.32;72.74
81897;BME280;71360;43.506;1.500;2024-03-02T04:25:21;97766.41;;;7.32;72.78
81897;BME280;71360;43.506;1.500;2024-03-02T04:27:46;97763.81;;;7.30;72.88
81897;BME280;71360;43.506;1.500;2024-03-02T04:30:12;97757.66;;;7.30;72.99
81897;BME280;71360;43.506;1.500;2024-03-02T04:32:38;97754.16;;;7.29;73.03
81897;BME280;71360;43.506;1.500;2024-03-02T04:35:04;97754.06;;;7.31;72.87
81897;BME280;71360;43.506;1.500;2024-03-02T04:37:33;97743.44;;;7.31;73.37
81897;BME280;71360;43.506;1.500;2024-03-02T04:39:59;97739.06;;;7.30;73.53
81897;BME280;71360;43.506;1.500;2024-03-02T04:42:25;97732.81;;;7.31;73.01
81897;BME280;71360;43.506;1.500;2024-03-02T04:44:50;97746.09;;;7.31;72.92
81897;BME280;71360;43.506;1.500;2024-03-02T04:47:16;97742.56;;;7.30;73.28
81897;BME280;71360;43.506;1.500;2024-03-02T04:49:42;97737.19;;;7.32;73.38
81897;BME280;71360;43.506;1.500;2024-03-02T04:52:08;97743.34;;;7.32;73.41
81897;BME280;71360;43.506;1.500;2024-03-02T04:54:34;97737.09;;;7.33;73.28
81897;BME280;71360;43.506;1.500;2024-03-02T04:57:19;97729.84;;;7.35;73.32
81897;BME280;71360;43.506;1.500;2024-03-02T04:59:45;97737.72;;;7.37;73.37
81897;BME280;71360;43.506;1.500;2024-03-02T05:02:10;97735.75;;;7.40;73.20
81897;BME280;71360;43.506;1.500;2024-03-02T05:04:36;97739.19;;;7.42;73.56
81897;BME280;71360;43.506;1.500;2024-03-02T05:07:01;97723.13;;;7.44;73.37
81897;BME280;71360;43.506;1.500;2024-03-02T05:09:27;97715.91;;;7.46;73.69
81897;BME280;71360;43.506;1.500;2024-03-02T05:11:52;97706.97;;;7.47;73.13
81897;BME280;71360;43.506;1.500;2024-03-02T05:14:36;97701.56;;;7.49;73.19
81897;BME280;71360;43.506;1.500;2024-03-02T05:17:02;97704.91;;;7.52;73.39
81897;BME280;71360;43.506;1.500;2024-03-02T05:19:28;97706.59;;;7.53;73.97
81897;BME280;71360;43.506;1.500;2024-03-02T05:21:53;97695.88;;;7.55;73.41
81897;BME280;71360;43.506;1.500;2024-03-02T05:24:19;97695.78;;;7.56;73.62
81897;BME280;71360;43.506;1.500;2024-03-02T05:26:45;97695.78;;;7.56;74.00
81897;BME280;71360;43.506;1.500;2024-03-02T05:29:10;97694.81;;;7.57;73.84
81897;BME280;71360;43.506;1.500;2024-03-02T05:31:36;97690.34;;;7.58;74.43
81897;BME280;71360;43.506;1.500;2024-03-02T05:34:01;97679.72;;;7.58;74.27
81897;BME280;71360;43.506;1.500;2024-03-02T05:36:28;97677.06;;;7.58;74.59
81897;BME280;71360;43.506;1.500;2024-03-02T05:38:53;97669.19;;;7.56;74.46
81897;BME280;71360;43.506;1.500;2024-03-02T05:41:19;97665.56;;;7.57;74.21
81897;BME280;71360;43.506;1.500;2024-03-02T05:43:44;97670.03;;;7.57;73.89
81897;BME280;71360;43.506;1.500;2024-03-02T05:46:10;97666.53;;;7.56;74.21
81897;BME280;71360;43.506;1.500;2024-03-02T05:48:35;97667.56;;;7.54;74.00
81897;BME280;71360;43.506;1.500;2024-03-02T05:51:00;97661.47;;;7.52;74.33
81897;BME280;71360;43.506;1.500;2024-03-02T05:53:26;97652.78;;;7.50;74.51
81897;BME280;71360;43.506;1.500;2024-03-02T05:55:52;97657.31;;;7.48;74.57
81897;BME280;71360;43.506;1.500;2024-03-02T05:58:20;97649.44;;;7.46;74.00
81897;BME280;71360;43.506;1.500;2024-03-02T06:00:58;97650.38;;;7.45;74.04
81897;BME280;71360;43.506;1.500;2024-03-02T06:03:23;97638.25;;;7.41;74.35
81897;BME280;71360;43.506;1.500;2024-03-02T06:05:49;97639.22;;;7.40;74.79
81897;BME280;71360;43.506;1.500;2024-03-02T06:08:14;97632.28;;;7.37;74.72
81897;BME280;71360;43.506;1.500;2024-03-02T06:10:40;97628.00;;;7.35;75.06
81897;BME280;71360;43.506;1.500;2024-03-02T06:13:05;97617.47;;;7.33;74.83
81897;BME280;71360;43.506;1.500;2024-03-02T06:15:31;97605.03;;;7.34;74.71
81897;BME280;71360;43.506;1.500;2024-03-02T06:17:56;97596.31;;;7.32;74.81
81897;BME280;71360;43.506;1.500;2024-03-02T06:20:22;97605.25;;;7.31;74.79
81897;BME280;71360;43.506;1.500;2024-03-02T06:22:48;97600.88;;;7.30;75.00
81897;BME280;71360;43.506;1.500;2024-03-02T06:25:13;97591.28;;;7.27;74.63
81897;BME280;71360;43.506;1.500;2024-03-02T06:27:39;97592.22;;;7.26;74.71
81897;BME280;71360;43.506;1.500;2024-03-02T06:30:04;97582.56;;;7.25;74.93
81897;BME280;71360;43.506;1.500;2024-03-02T06:32:31;97579.97;;;7.23;74.77
81897;BME280;71360;43.506;1.500;2024-03-02T06:34:57;97568.63;;;7.21;75.08
81897;BME280;71360;43.506;1.500;2024-03-02T06:37:22;97563.41;;;7.20;74.68
81897;BME280;71360;43.506;1.500;2024-03-02T06:39:48;97571.56;;;7.17;74.98
81897;BME280;71360;43.506;1.500;2024-03-02T06:42:13;97577.84;;;7.16;75.26
81897;BME280;71360;43.506;1.500;2024-03-02T06:44:39;97575.28;;;7.14;74.90
81897;BME280;71360;43.506;1.500;2024-03-02T06:47:04;97581.53;;;7.13;75.21
81897;BME280;71360;43.506;1.500;2024-03-02T06:49:30;97563.13;;;7.10;75.48
81897;BME280;71360;43.506;1.500;2024-03-02T06:51:55;97561.41;;;7.09;75.28
81897;BME280;71360;43.506;1.500;2024-03-02T06:54:21;97553.56;;;7.07;74.95
81897;BME280;71360;43.506;1.500;2024-03-02T06:56:47;97550.03;;;7.07;75.28
81897;BME280;71360;43.506;1.500;2024-03-02T06:59:12;97548.34;;;7.06;75.03
81897;BME280;71360;43.506;1.500;2024-03-02T07:01:38;97557.25;;;7.05;75.61
81897;BME280;71360;43.506;1.500;2024-03-02T07:04:03;97550.13;;;7.05;75.41
81897;BME280;71360;43.506;1.500;2024-03-02T07:06:31;97544.72;;;7.07;75.20
81897;BME280;71360;43.506;1.500;2024-03-02T07:08:57;97544.72;;;7.07;75.52
81897;BME280;71360;43.506;1.500;2024-03-02T07:11:22;97538.34;;;7.09;75.39
81897;BME280;71360;43.506;1.500;2024-03-02T07:13:48;97537.31;;;7.12;75.19
81897;BME280;71360;43.506;1.500;2024-03-02T07:16:14;97541.69;;;7.13;75.21
81897;BME280;71360;43.506;1.500;2024-03-02T07:18:46;97545.84;;;7.17;75.35
81897;BME280;71360;43.506;1.500;2024-03-02T07:21:17;97535.00;;;7.20;75.24
81897;BME280;71360;43.506;1.500;2024-03-02T07:23:42;97532.91;;;7.25;75.43
81897;BME280;71360;43.506;1.500;2024-03-02T07:26:08;97547.50;;;7.33;75.04
81897;BME280;71360;43.506;1.500;2024-03-02T07:28:33;97538.28;;;7.38;75.30
81897;BME280;71360;43.506;1.500;2024-03-02T07:31:02;97537.78;;;7.46;75.22
81897;BME280;71360;43.506;1.500;2024-03-02T07:33:30;97525.16;;;7.50;74.85
81897;BME280;71360;43.506;1.500;2024-03-02T07:35:56;97527.50;;;7.54;75.16
81897;BME280;71360;43.506;1.500;2024-03-02T07:38:31;97529.00;;;7.58;74.28
81897;BME280;71360;43.506;1.500;2024-03-02T07:40:57;97523.41;;;7.63;74.70
81897;BME280;71360;43.506;1.500;2024-03-02T07:43:25;97509.06;;;7.66;74.40
81897;BME280;71360;43.506;1.500;2024-03-02T07:45:52;97502.47;;;7.71;74.77
81897;BME280;71360;43.506;1.500;2024-03-02T07:48:18;97508.25;;;7.78;74.58
81897;BME280;71360;43.506;1.500;2024-03-02T07:50:43;97498.13;;;7.83;74.54
81897;BME280;71360;43.506;1.500;2024-03-02T07:53:10;97501.16;;;7.91;74.41
81897;BME280;71360;43.506;1.500;2024-03-02T07:55:35;97502.31;;;8.00;74.37
81897;BME280;71360;43.506;1.500;2024-03-02T07:58:01;97493.59;;;8.11;74.60
81897;BME280;71360;43.506;1.500;2024-03-02T08:00:27;97483.50;;;8.16;74.54
81897;BME280;71360;43.506;1.500;2024-03-02T08:02:53;97488.28;;;8.24;74.33
81897;BME280;71360;43.506;1.500;2024-03-02T08:05:19;97483.38;;;8.31;74.29
81897;BME280;71360;43.506;1.500;2024-03-02T08:07:45;97474.03;;;8.38;73.93
81897;BME280;71360;43.506;1.500;2024-03-02T08:10:12;97467.22;;;8.47;74.31
81897;BME280;71360;43.506;1.500;2024-03-02T08:12:37;97457.66;;;8.57;73.92
81897;BME280;71360;43.506;1.500;2024-03-02T08:15:03;97467.44;;;8.69;73.90
81897;BME280;71360;43.506;1.500;2024-03-02T08:17:30;97461.22;;;8.82;73.82
81897;BME280;71360;43.506;1.500;2024-03-02T08:19:55;97461.06;;;8.96;73.59
81897;BME280;71360;43.506;1.500;2024-03-02T08:22:22;97459.22;;;9.09;73.75
81897;BME280;71360;43.506;1.500;2024-03-02T08:24:49;97460.66;;;9.26;73.20
81897;BME280;71360;43.506;1.500;2024-03-02T08:27:16;97449.78;;;9.41;73.14
81897;BME280;71360;43.506;1.500;2024-03-02T08:29:42;97450.72;;;9.53;72.98
81897;BME280;71360;43.506;1.500;2024-03-02T08:32:09;97433.66;;;9.67;73.02
81897;BME280;71360;43.506;1.500;2024-03-02T08:34:35;97437.09;;;9.80;72.36
81897;BME280;71360;43.506;1.500;2024-03-02T08:37:02;97424.78;;;9.90;72.11
81897;BME280;71360;43.506;1.500;2024-03-02T08:39:27;97420.28;;;10.02;71.94
81897;BME280;71360;43.506;1.500;2024-03-02T08:41:53;97415.22;;;10.10;71.73
81897;BME280;71360;43.506;1.500;2024-03-02T08:44:20;97426.25;;;10.17;71.85
81897;BME280;71360;43.506;1.500;2024-03-02T08:46:45;97427.72;;;10.21;71.03
81897;BME280;71360;43.506;1.500;2024-03-02T08:49:12;97417.53;;;10.26;71.22
81897;BME280;71360;43.506;1.500;2024-03-02T08:51:37;97413.78;;;10.29;71.07
81897;BME280;71360;43.506;1.500;2024-03-02T08:54:03;97414.03;;;10.26;70.92
81897;BME280;71360;43.506;1.500;2024-03-02T08:56:34;97401.75;;;10.23;70.89
81897;BME280;71360;43.506;1.500;2024-03-02T08:59:00;97390.25;;;10.23;71.07
81897;BME280;71360;43.506;1.500;2024-03-02T09:01:26;97387.66;;;10.21;70.75
81897;BME280;71360;43.506;1.500;2024-03-02T09:03:51;97389.25;;;10.24;70.71
81897;BME280;71360;43.506;1.500;2024-03-02T09:06:17;97387.06;;;10.29;71.06
81897;BME280;71360;43.506;1.500;2024-03-02T09:08:43;97389.41;;;10.34;70.83
81897;BME280;71360;43.506;1.500;2024-03-02T09:11:09;97386.72;;;10.34;70.59
81897;BME280;71360;43.506;1.500;2024-03-02T09:13:35;97378.63;;;10.35;70.68
81897;BME280;71360;43.506;1.500;2024-03-02T09:16:02;97379.47;;;10.36;70.68
81897;BME280;71360;43.506;1.500;2024-03-02T09:18:28;97377.28;;;10.41;71.44
81897;BME280;71360;43.506;1.500;2024-03-02T09:20:53;97374.84;;;10.49;71.13
81897;BME280;71360;43.506;1.500;2024-03-02T09:23:19;97371.91;;;10.63;71.11
81897;BME280;71360;43.506;1.500;2024-03-02T09:25:44;97364.59;;;10.77;71.36
81897;BME280;71360;43.506;1.500;2024-03-02T09:28:10;97366.28;;;10.89;70.96
81897;BME280;71360;43.506;1.500;2024-03-02T09:30:36;97364.41;;;11.01;71.08
81897;BME280;71360;43.506;1.500;2024-03-02T09:33:01;97361.09;;;11.09;71.00
81897;BME280;71360;43.506;1.500;2024-03-02T09:35:27;97356.69;;;11.19;71.28
81897;BME280;71360;43.506;1.500;2024-03-02T09:37:52;97360.03;;;11.32;71.14
81897;BME280;71360;43.506;1.500;2024-03-02T09:40:21;97352.41;;;11.49;71.32
81897;BME280;71360;43.506;1.500;2024-03-02T09:42:47;97346.63;;;11.65;71.32
81897;BME280;71360;43.506;1.500;2024-03-02T09:45:24;97338.13;;;11.81;71.18
81897;BME280;71360;43.506;1.500;2024-03-02T09:47:50;97338.81;;;11.94;70.69
81897;BME280;71360;43.506;1.500;2024-03-02T09:50:16;97323.06;;;12.01;70.76
81897;BME280;71360;43.506;1.500;2024-03-02T09:52:48;97317.28;;;12.06;70.29
81897;BME280;71360;43.506;1.500;2024-03-02T09:55:15;97317.88;;;12.09;70.44
81897;BME280;71360;43.506;1.500;2024-03-02T09:57:41;97320.28;;;12.12;70.42
81897;BME280;71360;43.506;1.500;2024-03-02T10:00:08;97307.47;;;12.16;70.86
81897;BME280;71360;43.506;1.500;2024-03-02T10:02:34;97315.69;;;12.24;70.62
81897;BME280;71360;43.506;1.500;2024-03-02T10:04:59;97300.19;;;12.28;70.56
81897;BME280;71360;43.506;1.500;2024-03-02T10:07:25;97304.41;;;12.30;70.45
81897;BME280;71360;43.506;1.500;2024-03-02T10:09:50;97315.13;;;12.30;70.59
81897;BME280;71360;43.506;1.500;2024-03-02T10:12:18;97303.44;;;12.31;70.10
81897;BME280;71360;43.506;1.500;2024-03-02T10:14:44;97299.06;;;12.30;70.29
81897;BME280;71360;43.506;1.500;2024-03-02T10:17:13;97297.38;;;12.29;69.85
81897;BME280;71360;43.506;1.500;2024-03-02T10:19:41;97293.97;;;12.27;70.04
81897;BME280;71360;43.506;1.500;2024-03-02T10:22:10;97290.47;;;12.27;70.05
81897;BME280;71360;43.506;1.500;2024-03-02T10:27:50;97270.69;;;12.18;70.34
81897;BME280;71360;43.506;1.500;2024-03-02T10:30:15;97265.19;;;12.20;70.14
81897;BME280;71360;43.506;1.500;2024-03-02T10:32:41;97269.72;;;12.19;70.47
81897;BME280;71360;43.506;1.500;2024-03-02T10:35:06;97259.97;;;12.18;70.04
81897;BME280;71360;43.506;1.500;2024-03-02T10:37:32;97261.69;;;12.19;70.30
81897;BME280;71360;43.506;1.500;2024-03-02T10:40:04;97262.41;;;12.21;70.21
81897;BME280;71360;43.506;1.500;2024-03-02T10:42:30;97263.81;;;12.25;70.14
81897;BME280;71360;43.506;1.500;2024-03-02T10:44:56;97257.06;;;12.31;70.50
81897;BME280;71360;43.506;1.500;2024-03-02T10:47:23;97254.09;;;12.34;70.55
81897;BME280;71360;43.506;1.500;2024-03-02T10:49:49;97250.03;;;12.40;70.50
81897;BME280;71360;43.506;1.500;2024-03-02T10:52:16;97244.13;;;12.46;70.30
81897;BME280;71360;43.506;1.500;2024-03-02T10:54:42;97231.44;;;12.48;70.31
81897;BME280;71360;43.506;1.500;2024-03-02T10:57:10;97224.66;;;12.54;69.91
81897;BME280;71360;43.506;1.500;2024-03-02T10:59:37;97220.84;;;12.56;69.78
81897;BME280;71360;43.506;1.500;2024-03-02T11:02:11;97222.13;;;12.62;69.92
81897;BME280;71360;43.506;1.500;2024-03-02T11:04:38;97219.03;;;12.66;69.87
81897;BME280;71360;43.506;1.500;2024-03-02T11:07:10;97205.06;;;12.73;69.97
81897;BME280;71360;43.506;1.500;2024-03-02T11:09:54;97214.25;;;12.80;70.12
81897;BME280;71360;43.506;1.500;2024-03-02T11:12:29;97215.66;;;12.84;69.76
81897;BME280;71360;43.506;1.500;2024-03-02T11:14:56;97217.91;;;12.89;69.51
81897;BME280;71360;43.506;1.500;2024-03-02T11:17:24;97203.09;;;12.94;69.29
81897;BME280;71360;43.506;1.500;2024-03-02T11:19:50;97199.84;;;13.00;69.50
81897;BME280;71360;43.506;1.500;2024-03-02T11:22:17;97186.72;;;13.07;69.05
81897;BME280;71360;43.506;1.500;2024-03-02T11:24:49;97171.59;;;13.16;68.96
81897;BME280;71360;43.506;1.500;2024-03-02T11:33:07;97165.22;;;13.27;67.96
81897;BME280;71360;43.506;1.500;2024-03-02T11:35:40;97148.81;;;13.30;67.92
81897;BME280;71360;43.506;1.500;2024-03-02T11:38:09;97155.56;;;13.34;67.80
81897;BME280;71360;43.506;1.500;2024-03-02T11:40:35;97136.41;;;13.39;67.54
81897;BME280;71360;43.506;1.500;2024-03-02T11:43:01;97135.13;;;13.43;67.49
81897;BME280;71360;43.506;1.500;2024-03-02T11:45:27;97136.22;;;13.50;67.64
81897;BME280;71360;43.506;1.500;2024-03-02T11:47:57;97141.00;;;13.56;67.62
81897;BME280;71360;43.506;1.500;2024-03-02T11:50:47;97136.72;;;13.63;67.05
81897;BME280;71360;43.506;1.500;2024-03-02T11:53:14;97125.69;;;13.66;66.99
81897;BME280;71360;43.506;1.500;2024-03-02T11:55:40;97127.06;;;13.71;66.79
81897;BME280;71360;43.506;1.500;2024-03-02T11:58:07;97124.78;;;13.76;67.31
81897;BME280;71360;43.506;1.500;2024-03-02T12:00:32;97118.13;;;13.80;67.01
81897;BME280;71360;43.506;1.500;2024-03-02T12:03:09;97096.91;;;13.87;66.83
81897;BME280;71360;43.506;1.500;2024-03-02T12:05:35;97104.34;;;13.93;66.51
81897;BME280;71360;43.506;1.500;2024-03-02T12:08:03;97102.91;;;13.98;66.28
81897;BME280;71360;43.506;1.500;2024-03-02T12:10:30;97092.56;;;14.04;66.60
81897;BME280;71360;43.506;1.500;2024-03-02T12:13:06;97082.56;;;14.14;66.44
81897;BME280;71360;43.506;1.500;2024-03-02T12:15:36;97083.50;;;14.23;65.93
81897;BME280;71360;43.506;1.500;2024-03-02T12:18:02;97066.59;;;14.30;66.07
81897;BME280;71360;43.506;1.500;2024-03-02T12:20:29;97054.25;;;14.38;65.66
81897;BME280;71360;43.506;1.500;2024-03-02T12:22:57;97049.63;;;14.48;65.49
81897;BME280;71360;43.506;1.500;2024-03-02T12:25:24;97058.63;;;14.57;65.80
81897;BME280;71360;43.506;1.500;2024-03-02T12:27:53;97042.41;;;14.66;65.49
81897;BME280;71360;43.506;1.500;2024-03-02T12:30:19;97040.94;;;14.72;65.60
81897;BME280;71360;43.506;1.500;2024-03-02T12:32:48;97041.16;;;14.79;65.45
81897;BME280;71360;43.506;1.500;2024-03-02T12:35:14;97033.47;;;14.84;65.01
81897;BME280;71360;43.506;1.500;2024-03-02T12:37:50;97038.50;;;14.87;64.67
81897;BME280;71360;43.506;1.500;2024-03-02T12:40:17;97038.19;;;14.90;65.00
81897;BME280;71360;43.506;1.500;2024-03-02T12:42:46;97024.56;;;14.92;64.70
81897;BME280;71360;43.506;1.500;2024-03-02T12:45:15;97010.13;;;14.93;64.85
81897;BME280;71360;43.506;1.500;2024-03-02T12:47:42;96997.00;;;14.90;64.58
81897;BME280;71360;43.506;1.500;2024-03-02T12:50:09;96996.19;;;14.89;64.87
81897;BME280;71360;43.506;1.500;2024-03-02T12:52:35;97001.06;;;14.94;64.63
81897;BME280;71360;43.506;1.500;2024-03-02T12:55:03;96991.84;;;14.96;64.95
81897;BME280;71360;43.506;1.500;2024-03-02T12:57:33;96987.13;;;14.98;64.55
81897;BME280;71360;43.506;1.500;2024-03-02T13:00:00;96979.06;;;14.98;64.82
81897;BME280;71360;43.506;1.500;2024-03-02T13:02:30;96982.44;;;15.00;64.52
81897;BME280;71360;43.506;1.500;2024-03-02T13:04:57;96973.50;;;15.00;64.24
81897;BME280;71360;43.506;1.500;2024-03-02T13:07:26;96974.38;;;15.00;64.25
81897;BME280;71360;43.506;1.500;2024-03-02T13:09:53;96955.72;;;14.99;64.17
81897;BME280;71360;43.506;1.500;2024-03-02T13:12:21;96971.53;;;15.02;64.32
81897;BME280;71360;43.506;1.500;2024-03-02T13:14:51;96974.91;;;15.04;63.95
81897;BME280;71360;43.506;1.500;2024-03-02T13:17:20;96965.50;;;15.08;63.79
81897;BME280;71360;43.506;1.500;2024-03-02T13:19:59;96957.78;;;15.13;63.79
81897;BME280;71360;43.506;1.500;2024-03-02T13:22:25;96952.75;;;15.18;63.70
81897;BME280;71360;43.506;1.500;2024-03-02T13:24:52;96950.06;;;15.18;63.19